Latest Coastal Weather Observations for Kowanyama

IDQ60701

Issued at 10:01 am EST Friday 29 April 2016 (issued every 10 minutes, with the page automatically refreshed every 10 minutes)

About coastal observations | Map of coastal stations | Coastal observations for QLD | Marine services | Other Formats
Station Details ID: 029038 Name: KOWANYAMA AIRPORT Lat: -15.48 Lon: 141.75 Height: 9.6 m
Data from the previous 72 hours. | See also: Recent months at Kowanyama
Date/Time
EST
Temp

°C
Wind Pressure Rain
since 9am
mm
Weather Cloud Vis
km
Sea
Height
m
Swell
Dir
 
Speed
knots
Gust
knots
hPa Trend Height
m
Period
s
Dir
29/10:00am 30.2 E 11 15 1013.8 - 0.0 - - - - - - -
29/09:30am 29.3 E 8 15 1013.7 - 0.0 - - - - - - -
29/09:00am 28.2 ESE 6 9 1013.6 - 0.0 - - - - - - -
29/08:30am 26.7 ESE 7 10 1013.7 - 0.0 - - - - - - -
29/08:00am 25.3 ESE 6 7 1013.4 - 0.0 - - - - - - -
29/07:30am 24.1 SE 5 7 1013.2 - 0.0 - Partly cloudy - - - - -
29/07:00am 23.2 ESE 4 5 1012.7 - 0.0 - - - - - - -
29/06:30am 23.0 SE 1 3 1012.5 - 0.0 - - - - - - -
29/06:00am 23.0 SE 3 3 1012.0 - 0.0 - - - - - - -
29/05:30am 23.4 SE 4 5 1011.8 - 0.0 - - - - - - -
29/05:00am 23.3 SE 3 3 1011.7 - 0.0 - - - - - - -
29/04:30am 23.9 ESE 3 4 1011.6 - 0.0 - - - - - - -
29/04:00am 24.3 ESE 3 4 1011.6 - 0.0 - - - - - - -
29/03:30am 24.9 ESE 4 5 1011.6 - 0.0 - - - - - - -
29/03:00am 25.7 E 4 6 1011.7 - 0.0 - - - - - - -
29/02:30am 26.1 E 5 8 1011.9 - 0.0 - Partly cloudy - - - - -
29/02:00am 26.2 E 5 9 1012.2 - 0.0 - - - - - - -
29/01:30am 25.5 CALM 0 0 1012.3 - 0.0 - - - - - - -
29/01:00am 25.9 CALM 0 0 1012.5 - 0.0 - Partly cloudy - - - - -
29/12:30am 26.8 CALM 0 0 1012.7 - 0.0 - Partly cloudy - - - - -
29/12:00am 27.0 NE 3 5 1012.8 - 0.0 - Mostly cloudy - - - - -
 
Date/Time
EST
Temp

°C
Wind Pressure Rain
since 9am
mm
Weather Cloud Vis
km
Sea
Height
m
Swell
Dir
 
Speed
knots
Gust
knots
hPa Trend Height
m
Period
s
Dir
28/11:30pm 27.4 NE 4 5 1012.9 - 0.0 - Partly cloudy - - - - -
28/11:00pm 27.9 NNE 4 5 1012.9 - 0.0 - Cloudy - - - - -
28/10:30pm 28.0 NE 3 6 1012.8 - 0.0 - Partly cloudy - - - - -
28/10:00pm 28.4 NE 3 4 1012.7 - 0.0 - Cloudy - - - - -
28/09:30pm 28.8 NE 2 4 1012.4 - 0.0 - Cloudy - - - - -
28/09:00pm 29.1 ENE 3 4 1012.2 - 0.0 - Cloudy - - - - -
28/08:30pm 29.6 ESE 3 4 1011.8 - 0.0 - Cloudy - - - - -
28/08:00pm 29.6 ENE 3 4 1011.5 - 0.0 - Cloudy - - - - -
28/07:30pm 29.9 ENE 3 5 1011.1 - 0.0 - Cloudy - - - - -
28/07:00pm 30.2 ENE 3 4 1010.8 - 0.0 - Cloudy - - - - -
28/06:30pm 30.7 ENE 3 4 1010.6 - 0.0 - Cloudy - - - - -
28/06:00pm 31.3 E 4 5 1010.3 - 0.0 - Cloudy - - - - -
28/05:30pm 31.7 E 5 8 1010.0 - 0.0 - Cloudy - - - - -
28/05:00pm 32.2 E 6 9 1009.6 - 0.0 - Cloudy - - - - -
28/04:30pm 32.8 ESE 7 10 1009.4 - 0.0 - Cloudy - - - - -
28/04:00pm 33.9 ENE 5 8 1009.3 - 0.0 - Partly cloudy - - - - -
28/03:30pm 32.8 ESE 7 13 1009.3 - 0.0 - Cloudy - - - - -
28/03:00pm 33.4 ENE 7 10 1009.4 - 0.0 - Mostly clear - - - - -
28/02:30pm 34.5 ENE 8 12 1009.5 - 0.0 - - - - - - -
28/02:00pm 33.8 ESE 8 13 1009.8 - 0.0 - - - - - - -
28/01:30pm 33.3 ESE 9 15 1010.1 - 0.0 - - - - - - -
28/01:00pm 32.5 E 8 15 1010.3 - 0.0 - - - - - - -
28/12:30pm 32.4 ESE 10 15 1010.7 - 0.0 - - - - - - -
28/12:00pm 32.3 E 8 13 1011.0 - 0.0 - - - - - - -
28/11:30am 31.4 E 10 15 1011.7 - 0.0 - - - - - - -
28/11:00am 31.4 E 9 14 1012.2 - 0.0 - - - - - - -
28/10:30am 30.2 E 11 19 1012.6 - 0.0 - - - - - - -
28/10:00am 29.3 E 8 13 1012.9 - 0.0 - - - - - - -
28/09:30am 28.8 ESE 8 11 1012.9 - 0.0 - - - - - - -
28/09:00am 27.4 ESE 8 11 1012.7 - 0.0 - - - - - - -
28/08:30am 26.4 ESE 6 9 1012.4 - 0.0 - - - - - - -
28/08:00am 25.1 ESE 6 8 1012.1 - 0.0 - - - - - - -
28/07:30am 23.8 ESE 3 5 1011.8 - 0.0 - Partly cloudy - - - - -
28/07:00am 22.0 SE 3 4 1011.7 - 0.0 - Partly cloudy - - - - -
28/06:30am 22.0 SE 3 4 1011.3 - 0.0 - - - - - - -
28/06:00am 22.2 SSE 3 4 1011.2 - 0.0 - - - - - - -
28/05:30am 22.8 SE 4 4 1010.8 - 0.0 - Partly cloudy - - - - -
28/05:00am 23.2 E 3 4 1010.5 - 0.0 - Partly cloudy - - - - -
28/04:30am 23.3 E 4 5 1010.4 - 0.0 - - - - - - -
28/04:00am 23.5 E 3 5 1010.4 - 0.0 - - - - - - -
28/03:30am 23.7 E 4 5 1010.5 - 0.0 - - - - - - -
28/03:00am 23.8 E 3 4 1010.5 - 0.0 - - - - - - -
28/02:30am 24.0 E 2 3 1010.7 - 0.0 - - - - - - -
28/02:00am 24.6 E 3 5 1010.9 - 0.0 - - - - - - -
28/01:30am 23.8 NE 3 5 1010.9 - 0.0 - - - - - - -
28/01:00am 24.0 E 2 3 1011.3 - 0.0 - - - - - - -
28/12:30am 24.4 E 1 3 1011.5 - 0.0 - - - - - - -
28/12:00am 24.7 E 3 4 1011.7 - 0.0 - - - - - - -
 
Date/Time
EST
Temp

°C
Wind Pressure Rain
since 9am
mm
Weather Cloud Vis
km
Sea
Height
m
Swell
Dir
 
Speed
knots
Gust
knots
hPa Trend Height
m
Period
s
Dir
27/11:30pm 25.0 ENE 3 4 1011.9 - 0.0 - Partly cloudy - - - - -
27/11:00pm 25.2 NE 5 6 1011.9 - 0.0 - Partly cloudy - - - - -
27/10:30pm 25.4 SSW 1 5 1011.6 - 0.0 - Partly cloudy - - - - -
27/10:00pm 25.4 CALM 0 0 1011.5 - 0.0 - Partly cloudy - - - - -
27/09:30pm 25.8 CALM 0 0 1011.6 - 0.0 - Partly cloudy - - - - -
27/09:00pm 26.1 WNW 1 3 1011.4 - 0.0 - - - - - - -
27/08:30pm 26.2 W 2 4 1011.0 - 0.0 - - - - - - -
27/08:00pm 25.6 W 1 6 1010.6 - 0.0 - - - - - - -
27/07:30pm 26.9 CALM 0 0 1010.2 - 0.0 - - - - - - -
27/07:00pm 27.8 CALM 0 3 1009.8 - 0.0 - - - - - - -
27/06:30pm 29.2 E 4 6 1009.5 - 0.0 - - - - - - -
27/06:00pm 31.3 E 4 5 1009.3 - 0.0 - - - - - - -
27/05:30pm 32.3 ESE 5 7 1008.9 - 0.0 - - - - - - -
27/05:00pm 33.2 ESE 6 10 1008.7 - 0.0 - - - - - - -
27/04:30pm 33.3 SE 7 10 1008.6 - 0.0 - - - - - - -
27/04:00pm 33.7 E 6 8 1008.6 - 0.0 - - - - - - -
27/03:30pm 34.0 ESE 7 13 1008.6 - 0.0 - - - - - - -
27/03:00pm 33.5 E 7 10 1008.7 - 0.0 - - - - - - -
27/02:30pm 33.0 ESE 8 11 1009.0 - 0.0 - - - - - - -
27/02:00pm 32.8 ESE 8 11 1009.4 - 0.0 - - - - - - -
27/01:30pm 32.8 ESE 9 13 1010.0 - 0.0 - - - - - - -
27/01:00pm 32.8 ESE 8 13 1010.5 - 0.0 - - - - - - -
27/12:30pm 32.6 E 7 12 1011.0 - 0.0 - - - - - - -
27/12:00pm 31.9 E 8 11 1011.4 - 0.0 - - - - - - -
27/11:30am 31.2 ESE 7 11 1012.0 - 0.0 - - - - - - -
27/11:00am 30.1 SE 7 10 1012.5 - 0.0 - - - - - - -
27/10:30am 30.1 ESE 7 10 1012.9 - 0.0 - - - - - - -
27/10:00am 28.8 ESE 8 11 1013.2 - 0.0 - - - - - - -
27/09:30am 27.7 ESE 9 13 1013.4 - 0.0 - - - - - - -
27/09:00am 26.3 ESE 8 12 1013.4 - 0.0 - - - - - - -
27/08:30am 24.9 ESE 8 10 1013.3 - 0.0 - Partly cloudy - - - - -
27/08:00am 23.1 SE 4 5 1013.1 - 0.0 - Partly cloudy - - - - -
27/07:30am 22.2 SSE 4 4 1012.9 - 0.0 - - - - - - -
27/07:00am 21.9 ESE 3 4 1012.5 - 0.0 - - - - - - -
27/06:30am 22.0 ESE 3 4 1012.2 - 0.0 - - - - - - -
27/06:00am 21.9 SE 3 4 1011.8 - 0.0 - - - - - - -
27/05:30am 21.9 SE 3 3 1011.4 - 0.0 - - - - - - -
27/05:00am 22.4 SE 3 4 1011.2 - 0.0 - - - - - - -
27/04:30am 22.7 SE 3 4 1011.1 - 0.0 - - - - - - -
27/04:00am 22.9 SE 3 4 1011.0 - 0.0 - - - - - - -
27/03:30am 23.1 SE 3 5 1011.2 - 0.0 - - - - - - -
27/03:00am 23.8 SE 5 6 1011.2 - 0.0 - - - - - - -
27/02:30am 24.0 SE 4 6 1011.4 - 0.0 - - - - - - -
27/02:00am 24.4 SE 5 6 1011.7 - 0.0 - - - - - - -
27/01:30am 24.2 ESE 5 5 1011.7 - 0.0 - - - - - - -
27/01:00am 24.2 SE 3 4 1012.1 - 0.0 - - - - - - -
27/12:30am 24.5 SE 4 4 1012.3 - 0.0 - - - - - - -
27/12:00am 25.2 ESE 3 4 1012.4 - 0.0 - - - - - - -
 
Date/Time
EST
Temp

°C
Wind Pressure Rain
since 9am
mm
Weather Cloud Vis
km
Sea
Height
m
Swell
Dir
 
Speed
knots
Gust
knots
hPa Trend Height
m
Period
s
Dir
26/11:30pm 25.8 ESE 3 5 1012.4 - 0.0 - - - - - - -
26/11:00pm 26.3 E 3 5 1012.4 - 0.0 - Partly cloudy - - - - -
26/10:30pm 27.0 ESE 5 6 1012.4 - 0.0 - Partly cloudy - - - - -
26/10:00pm 27.5 E 5 7 1012.5 - 0.0 - Partly cloudy - - - - -
26/09:30pm 27.6 E 5 8 1012.5 - 0.0 - Partly cloudy - - - - -
26/09:00pm 27.7 E 6 8 1012.4 - 0.0 - Partly cloudy - - - - -
26/08:30pm 28.2 ESE 5 7 1012.3 - 0.0 - Partly cloudy - - - - -
26/08:00pm 28.0 ESE 4 5 1011.9 - 0.0 - Cloudy - - - - -
26/07:30pm 27.5 ESE 3 4 1011.5 - 0.0 - Partly cloudy - - - - -
26/07:00pm 28.5 ESE 4 6 1011.3 - 0.0 - - - - - - -
26/06:30pm 29.3 ESE 5 7 1011.0 - 0.0 - Partly cloudy - - - - -
26/06:00pm 30.1 ESE 6 8 1010.8 - 0.0 - Mostly clear - - - - -
26/05:30pm 31.3 ESE 7 11 1010.6 - 0.0 - Partly cloudy - - - - -
26/05:00pm 31.0 ESE 8 12 1010.3 - 0.0 - Partly cloudy - - - - -
26/04:30pm 31.6 ESE 7 10 1010.1 - 0.0 - Partly cloudy - - - - -
26/04:00pm 32.4 ESE 7 10 1010.1 - 0.0 - Partly cloudy - - - - -
26/03:30pm 32.6 E 7 11 1010.1 - 0.0 - Partly cloudy - - - - -
26/03:00pm 31.6 ESE 10 15 1010.2 - 0.0 - Mostly clear - - - - -
26/02:30pm 32.4 E 8 13 1010.4 - 0.0 - Partly cloudy - - - - -
26/02:00pm 31.9 ESE 9 13 1010.6 - 0.0 - Partly cloudy - - - - -
26/01:30pm 32.8 E 10 17 1010.9 - 0.0 - - - - - - -
26/01:00pm 32.2 E 9 16 1011.2 - 0.0 - - - - - - -
26/12:30pm 31.3 E 10 17 1011.6 - 0.0 - - - - - - -
26/12:00pm 31.3 ESE 12 18 1012.0 - 0.0 - - - - - - -
26/11:30am 30.5 E 11 19 1012.3 - 0.0 - - - - - - -
26/11:00am 29.7 E 11 18 1012.7 - 0.0 - - - - - - -
26/10:30am 29.2 E 11 15 1013.1 - 0.0 - - - - - - -

Other Formats:

Comma delimited format used in spreadsheet applications
http://www.bom.gov.au/fwo/IDQ60701/IDQ60701.94268.axf

JavaScript Object Notation format (JSON) in row-major order
http://www.bom.gov.au/fwo/IDQ60701/IDQ60701.94268.json